Metar z połowy godziny Komunikat METAR ze strony awiacja.imgw.pl Metar G00 EPKT METAR EPKT 070030Z 24008KT 3300 -SN BR OVC003 00/00 Q1010 =